Time;durP1;ratioP1;P1;durP2;ratioP2;P2;SDS_P1;SDS_P2;PMS_P1;PMS_P2;Temp;Humidity;BMP_temperature;BMP_pressure;BME280_temperature;BME280_humidity;BME280_pressure;Samples;Min_cycle;Max_cycle;Signal;HPM_P1;HPM_P2
2022/09/01 00:01:26;;;;;;;1.30;0.80;;;14.40;99.90;;;;;;4756049;30;20625;-88
2022/09/01 00:04:07;;;;;;;3.90;0.70;;;14.40;99.90;;;;;;4740509;30;20193;-89
2022/09/01 00:06:33;;;;;;;7.75;0.90;;;14.40;99.90;;;;;;4755100;30;20220;-88
2022/09/01 00:09:04;;;;;;;3.60;0.93;;;14.40;99.90;;;;;;4740455;30;20191;-87
2022/09/01 00:11:31;;;;;;;1.67;0.65;;;14.40;99.90;;;;;;4740249;30;20792;-88
2022/09/01 00:14:01;;;;;;;1.75;0.77;;;14.40;99.90;;;;;;4740628;30;20625;-88
2022/09/01 00:16:28;;;;;;;1.95;0.70;;;14.30;99.90;;;;;;4756166;30;20211;-84
2022/09/01 00:18:54;;;;;;;0.77;0.60;;;14.40;99.90;;;;;;4740533;30;20189;-88
2022/09/01 00:21:25;;;;;;;1.48;0.70;;;14.30;99.90;;;;;;4755844;30;20231;-88
2022/09/01 00:23:51;;;;;;;1.08;0.68;;;14.30;99.90;;;;;;4756130;30;20180;-89
2022/09/01 00:26:18;;;;;;;2.38;0.90;;;14.30;99.90;;;;;;4755080;30;20180;-89
2022/09/01 00:28:44;;;;;;;1.95;0.80;;;14.30;99.90;;;;;;4740181;30;20192;-87
2022/09/01 00:31:10;;;;;;;1.30;0.57;;;14.20;99.90;;;;;;4739636;30;20227;-88
2022/09/01 00:33:37;;;;;;;3.17;0.70;;;14.10;99.90;;;;;;4739998;30;20185;-88
2022/09/01 00:36:04;;;;;;;1.15;0.82;;;14.10;99.90;;;;;;4755624;30;20521;-88
2022/09/01 00:38:31;;;;;;;1.33;0.70;;;14.10;99.90;;;;;;4739703;30;20284;-87
2022/09/01 00:40:57;;;;;;;4.25;0.85;;;14.00;99.90;;;;;;4755637;30;20219;-86
2022/09/01 00:43:45;;;;;;;1.10;0.70;;;14.00;99.90;;;;;;4755458;30;20240;-87
2022/09/01 00:46:20;;;;;;;1.50;0.77;;;14.00;99.90;;;;;;4755789;30;20173;-89
2022/09/01 00:49:03;;;;;;;2.28;0.93;;;14.00;99.90;;;;;;4739644;30;20184;-88
2022/09/01 00:51:31;;;;;;;1.30;0.60;;;14.00;99.90;;;;;;4755242;30;20687;-89
2022/09/01 00:54:00;;;;;;;2.55;0.80;;;13.90;99.90;;;;;;4754425;30;20710;-88
2022/09/01 00:56:28;;;;;;;3.40;0.70;;;13.90;99.90;;;;;;4739622;30;20195;-87
2022/09/01 00:58:54;;;;;;;1.02;0.60;;;13.80;99.90;;;;;;4741922;30;20261;-88
2022/09/01 01:01:20;;;;;;;1.17;0.77;;;13.80;99.90;;;;;;4757107;30;20232;-89
2022/09/01 01:03:48;;;;;;;0.70;0.60;;;13.80;99.90;;;;;;4756963;30;20192;-88
2022/09/01 01:06:15;;;;;;;3.35;0.80;;;13.80;99.90;;;;;;4756852;30;20186;-88
2022/09/01 01:08:56;;;;;;;1.27;0.57;;;13.80;99.90;;;;;;4773188;30;20220;-88
2022/09/01 01:11:24;;;;;;;1.10;0.80;;;13.70;99.90;;;;;;4756790;30;20243;-87
2022/09/01 01:14:14;;;;;;;0.82;0.60;;;13.70;99.90;;;;;;4772184;30;20188;-87
2022/09/01 01:16:43;;;;;;;2.20;0.63;;;13.70;99.90;;;;;;4756849;30;20184;-87
2022/09/01 01:25:00;;;;;;;0.70;0.60;;;13.50;99.90;;;;;;4772818;30;20271;-89
2022/09/01 01:27:34;;;;;;;0.82;0.57;;;13.50;99.90;;;;;;4756466;30;20222;-88
2022/09/01 01:30:04;;;;;;;0.95;0.75;;;13.50;99.90;;;;;;4772264;30;20597;-87
2022/09/01 01:32:29;;;;;;;1.38;0.70;;;13.50;99.90;;;;;;4772010;30;20199;-87
2022/09/01 01:34:55;;;;;;;1.05;0.57;;;13.50;99.90;;;;;;4755681;30;20188;-85
2022/09/01 01:37:23;;;;;;;1.17;0.90;;;13.40;99.90;;;;;;4755789;30;20179;-84
2022/09/01 01:39:50;;;;;;;1.33;0.90;;;13.40;99.90;;;;;;4771588;30;20644;-85
2022/09/01 01:42:15;;;;;;;1.70;0.68;;;13.40;99.90;;;;;;4771585;30;20317;-85
2022/09/01 01:44:41;;;;;;;1.15;0.70;;;13.40;99.90;;;;;;4755350;30;20627;-84
2022/09/01 01:47:11;;;;;;;2.45;0.80;;;13.30;99.90;;;;;;4755794;30;20184;-85
2022/09/01 01:49:42;;;;;;;0.93;0.73;;;13.30;99.90;;;;;;4755261;30;20178;-84
2022/09/01 01:52:11;;;;;;;1.83;0.60;;;13.30;99.90;;;;;;4755751;30;20207;-84
2022/09/01 01:54:37;;;;;;;2.92;0.70;;;13.30;99.90;;;;;;4755528;30;20184;-85
2022/09/01 01:57:03;;;;;;;2.88;0.85;;;13.30;99.90;;;;;;4771535;30;20187;-84
2022/09/01 01:59:29;;;;;;;1.58;0.70;;;13.20;99.90;;;;;;4755140;30;20212;-85
2022/09/01 02:01:55;;;;;;;3.55;1.00;;;13.20;99.90;;;;;;4755556;30;20631;-84
2022/09/01 02:04:22;;;;;;;0.82;0.65;;;13.20;99.90;;;;;;4771298;30;20223;-85
2022/09/01 02:06:48;;;;;;;1.13;0.70;;;13.10;99.90;;;;;;4770987;30;20663;-83
2022/09/01 02:09:22;;;;;;;2.00;0.70;;;13.10;99.90;;;;;;4755216;30;20188;-85
2022/09/01 02:11:48;;;;;;;3.88;0.70;;;13.00;99.90;;;;;;4755213;30;20247;-85
2022/09/01 02:14:14;;;;;;;1.67;0.70;;;13.10;99.90;;;;;;4771521;30;20183;-87
2022/09/01 02:16:41;;;;;;;2.47;0.65;;;13.10;99.90;;;;;;4771626;30;20708;-88
2022/09/01 02:19:08;;;;;;;3.55;0.85;;;13.00;99.90;;;;;;4771482;30;20227;-88
2022/09/01 02:21:34;;;;;;;2.67;0.85;;;13.00;99.90;;;;;;4771354;30;20191;-87
2022/09/01 02:24:04;;;;;;;2.15;0.80;;;12.90;99.90;;;;;;4771604;30;20212;-88
2022/09/01 02:26:46;;;;;;;2.08;0.60;;;13.00;99.90;;;;;;4755590;30;20290;-84
2022/09/01 02:29:21;;;;;;;1.00;0.60;;;12.90;99.90;;;;;;4755797;30;20644;-85
2022/09/01 02:31:52;;;;;;;2.13;0.90;;;12.90;99.90;;;;;;4755626;30;20361;-84
2022/09/01 02:34:20;;;;;;;1.08;0.70;;;12.90;99.90;;;;;;4755777;30;20176;-84
2022/09/01 02:36:48;;;;;;;1.40;0.77;;;12.70;99.90;;;;;;4771308;30;20263;-84
2022/09/01 02:39:28;;;;;;;2.58;0.70;;;12.70;99.90;;;;;;4771301;30;20233;-83
2022/09/01 02:41:54;;;;;;;1.02;0.65;;;12.80;99.90;;;;;;4755374;30;20250;-83
2022/09/01 02:44:21;;;;;;;1.48;0.73;;;12.80;99.90;;;;;;4771388;30;20604;-85
2022/09/01 02:46:49;;;;;;;10.68;0.80;;;12.80;99.90;;;;;;4755637;30;20191;-84
2022/09/01 02:49:24;;;;;;;1.25;0.70;;;12.80;99.90;;;;;;4739755;30;20207;-86
2022/09/01 02:51:52;;;;;;;1.67;0.77;;;12.80;99.90;;;;;;4737664;30;20861;-88
2022/09/01 02:54:22;;;;;;;1.08;0.60;;;12.80;99.90;;;;;;4737615;30;20625;-88
2022/09/01 02:56:49;;;;;;;6.32;0.77;;;12.80;99.90;;;;;;4737859;30;20185;-87
2022/09/01 02:59:20;;;;;;;1.30;0.85;;;12.70;99.90;;;;;;4742450;30;20227;-87
2022/09/01 03:01:47;;;;;;;1.40;0.70;;;12.60;99.90;;;;;;4771113;30;20513;-87
2022/09/01 03:04:13;;;;;;;2.60;0.70;;;12.60;99.90;;;;;;4755185;30;20238;-88
2022/09/01 03:06:39;;;;;;;3.58;0.80;;;12.70;99.90;;;;;;4771036;30;20195;-87
2022/09/01 03:09:11;;;;;;;2.67;1.08;;;12.60;99.90;;;;;;4771247;30;20176;-88
2022/09/01 03:11:38;;;;;;;1.58;0.90;;;12.60;99.90;;;;;;4771082;30;20281;-85
2022/09/01 03:14:06;;;;;;;2.17;0.70;;;12.60;99.90;;;;;;4771199;30;20613;-87
2022/09/01 03:16:35;;;;;;;0.98;0.80;;;12.50;99.90;;;;;;4770993;30;20686;-87
2022/09/01 03:19:07;;;;;;;1.38;0.90;;;12.40;99.90;;;;;;4755276;30;20184;-85
2022/09/01 03:21:39;;;;;;;2.20;0.90;;;12.40;99.90;;;;;;4754866;30;20274;-87
2022/09/01 03:24:11;;;;;;;1.90;1.10;;;12.30;99.90;;;;;;4770882;30;20618;-89
2022/09/01 03:26:39;;;;;;;1.00;0.73;;;12.30;99.90;;;;;;4755256;30;20216;-88
2022/09/01 03:29:05;;;;;;;3.72;1.02;;;12.40;99.90;;;;;;4767186;30;20239;-86
2022/09/01 03:31:31;;;;;;;1.08;0.60;;;12.30;99.90;;;;;;4752993;30;20220;-83
2022/09/01 03:33:57;;;;;;;1.17;0.70;;;12.30;99.90;;;;;;4753480;30;20263;-83
2022/09/01 03:36:24;;;;;;;2.95;0.85;;;12.30;99.90;;;;;;4753598;30;20216;-83
2022/09/01 03:38:51;;;;;;;0.65;0.65;;;12.30;99.90;;;;;;4756442;30;20259;-84
2022/09/01 03:41:20;;;;;;;2.60;1.00;;;12.30;99.90;;;;;;4756219;30;20204;-83
2022/09/01 03:43:46;;;;;;;0.77;0.70;;;12.20;99.90;;;;;;4740021;30;20247;-84
2022/09/01 03:46:21;;;;;;;1.13;0.75;;;12.20;99.90;;;;;;4756354;30;20192;-87
2022/09/01 03:48:50;;;;;;;1.05;0.88;;;12.20;99.90;;;;;;4740333;30;20181;-88
2022/09/01 03:51:17;;;;;;;2.83;0.80;;;12.10;99.90;;;;;;4755802;30;20688;-88
2022/09/01 03:53:42;;;;;;;1.20;0.80;;;12.10;99.90;;;;;;4756087;30;20233;-88
2022/09/01 03:56:10;;;;;;;1.85;0.80;;;12.00;99.90;;;;;;4755771;30;20267;-88
2022/09/01 03:58:36;;;;;;;1.30;0.85;;;11.90;99.90;;;;;;4756115;30;20165;-87
2022/09/01 04:01:02;;;;;;;2.05;0.88;;;11.90;99.90;;;;;;4773818;30;20180;-87
2022/09/01 04:03:31;;;;;;;3.05;0.90;;;11.80;99.90;;;;;;4757674;30;20655;-87
2022/09/01 04:06:02;;;;;;;1.92;0.80;;;11.80;99.90;;;;;;4757276;30;20619;-87
2022/09/01 04:08:29;;;;;;;2.85;0.80;;;11.80;99.90;;;;;;4757774;30;20194;-88
2022/09/01 04:10:57;;;;;;;1.55;0.73;;;11.80;99.90;;;;;;4773243;30;20216;-88
2022/09/01 04:13:30;;;;;;;1.00;0.70;;;11.70;99.90;;;;;;4757284;30;20531;-88
2022/09/01 04:15:57;;;;;;;0.85;0.73;;;11.80;99.90;;;;;;4757616;30;20188;-88
2022/09/01 04:18:24;;;;;;;2.00;0.80;;;11.80;99.90;;;;;;4773690;30;20230;-83
2022/09/01 04:20:55;;;;;;;1.90;0.88;;;11.90;99.90;;;;;;4757048;30;20407;-85
2022/09/01 04:23:25;;;;;;;0.88;0.63;;;11.90;99.90;;;;;;4757326;30;20327;-84
2022/09/01 04:25:58;;;;;;;0.85;0.70;;;11.90;99.90;;;;;;4773100;30;20187;-82
2022/09/01 04:28:32;;;;;;;2.38;0.70;;;11.90;99.90;;;;;;4756836;30;20572;-82
2022/09/01 04:31:06;;;;;;;3.47;0.90;;;11.90;99.90;;;;;;4773106;30;20210;-83
2022/09/01 04:33:37;;;;;;;2.67;0.93;;;11.90;99.90;;;;;;4757028;30;20613;-82
2022/09/01 04:36:05;;;;;;;2.75;0.80;;;11.90;99.90;;;;;;4772863;30;20192;-83
2022/09/01 04:38:34;;;;;;;2.35;0.70;;;11.80;99.90;;;;;;4757176;30;20243;-83
2022/09/01 04:41:06;;;;;;;1.10;0.85;;;11.70;99.90;;;;;;4756967;30;20265;-83
2022/09/01 04:43:33;;;;;;;0.95;0.70;;;11.70;99.90;;;;;;4739459;30;20261;-83
2022/09/01 04:45:59;;;;;;;1.00;0.60;;;11.70;99.90;;;;;;4736161;30;20193;-82
2022/09/01 04:48:25;;;;;;;0.98;0.88;;;11.70;99.90;;;;;;4736370;30;20614;-84
2022/09/01 04:50:51;;;;;;;1.08;0.70;;;11.70;99.90;;;;;;4736813;30;20305;-84
2022/09/01 04:53:18;;;;;;;0.93;0.80;;;11.70;99.90;;;;;;4735822;30;20189;-85
2022/09/01 04:55:46;;;;;;;1.63;0.60;;;11.70;99.90;;;;;;4735906;30;20280;-83
2022/09/01 04:58:16;;;;;;;2.15;0.80;;;11.70;99.90;;;;;;4735612;30;20247;-84
2022/09/01 05:00:46;;;;;;;1.85;0.82;;;11.70;99.90;;;;;;4736915;30;20205;-83
2022/09/01 05:03:12;;;;;;;1.98;1.00;;;11.70;99.90;;;;;;4735538;30;20170;-84
2022/09/01 05:05:44;;;;;;;1.35;0.90;;;11.70;99.90;;;;;;4736803;30;20539;-84
2022/09/01 05:08:14;;;;;;;0.82;0.80;;;11.70;99.90;;;;;;4736861;30;20233;-85
2022/09/01 05:10:45;;;;;;;0.88;0.77;;;11.60;99.90;;;;;;4735443;30;20632;-84
2022/09/01 05:13:16;;;;;;;1.17;0.90;;;11.60;99.90;;;;;;4735509;30;20185;-85
2022/09/01 05:15:46;;;;;;;1.38;0.73;;;11.60;99.90;;;;;;4735416;30;20196;-82
2022/09/01 05:18:22;;;;;;;1.58;0.98;;;11.70;99.90;;;;;;4736673;30;20245;-83
2022/09/01 05:20:48;;;;;;;1.15;0.80;;;11.70;99.90;;;;;;4735370;30;20754;-83
2022/09/01 05:23:18;;;;;;;1.60;1.02;;;11.70;99.90;;;;;;4735373;30;20536;-84
2022/09/01 05:25:48;;;;;;;1.10;1.00;;;11.70;99.90;;;;;;4736392;30;20173;-83
2022/09/01 05:28:18;;;;;;;4.50;1.25;;;11.70;99.90;;;;;;4735287;30;20201;-84
2022/09/01 05:30:47;;;;;;;1.60;1.10;;;11.70;99.90;;;;;;4735060;30;20248;-82
2022/09/01 05:33:16;;;;;;;1.35;1.10;;;11.80;99.90;;;;;;4736380;30;20709;-82
2022/09/01 05:35:52;;;;;;;1.25;0.90;;;11.80;99.90;;;;;;4718835;30;20200;-82
2022/09/01 05:38:18;;;;;;;1.98;1.00;;;11.90;99.90;;;;;;4717373;30;20181;-82
2022/09/01 05:40:43;;;;;;;1.40;0.98;;;12.00;99.90;;;;;;4718799;30;20591;-83
2022/09/01 05:43:13;;;;;;;1.52;0.95;;;12.00;99.90;;;;;;4742057;30;20265;-83
2022/09/01 05:45:42;;;;;;;1.60;1.00;;;12.20;99.90;;;;;;4753966;30;20189;-82
2022/09/01 05:48:10;;;;;;;2.22;1.00;;;12.20;99.90;;;;;;4750024;30;20651;-82
2022/09/01 05:50:41;;;;;;;2.63;1.30;;;12.20;99.90;;;;;;4771010;30;20299;-84
2022/09/01 05:53:14;;;;;;;1.50;0.95;;;12.30;99.90;;;;;;4755251;30;20656;-84
2022/09/01 05:55:42;;;;;;;3.05;1.15;;;12.40;99.90;;;;;;4747557;30;20200;-83
2022/09/01 05:58:13;;;;;;;4.40;1.20;;;12.50;99.90;;;;;;4753844;30;20196;-82
2022/09/01 06:00:41;;;;;;;2.08;1.30;;;12.50;99.90;;;;;;4768758;30;20196;-83
2022/09/01 06:03:08;;;;;;;1.58;1.00;;;12.60;99.90;;;;;;4754958;30;20200;-81
2022/09/01 06:05:38;;;;;;;2.25;1.08;;;12.60;99.90;;;;;;4754624;30;20188;-81
2022/09/01 06:08:06;;;;;;;1.52;1.00;;;12.70;99.90;;;;;;4755000;30;20192;-82
2022/09/01 06:10:35;;;;;;;1.30;0.90;;;12.60;99.90;;;;;;4754815;30;20216;-82
2022/09/01 06:13:01;;;;;;;2.40;1.00;;;12.70;99.90;;;;;;4754623;30;20628;-81
2022/09/01 06:15:31;;;;;;;3.80;1.00;;;12.70;99.90;;;;;;4754146;30;20531;-82
2022/09/01 06:17:57;;;;;;;4.10;0.90;;;12.80;99.90;;;;;;4754263;30;20203;-83
2022/09/01 06:20:25;;;;;;;1.20;1.00;;;12.90;99.90;;;;;;4770546;30;20207;-82
2022/09/01 06:22:54;;;;;;;1.33;0.80;;;12.90;99.90;;;;;;4754689;30;20548;-82
2022/09/01 06:25:20;;;;;;;1.50;0.88;;;13.00;99.90;;;;;;4770202;30;20215;-81
2022/09/01 06:27:47;;;;;;;4.00;1.08;;;13.10;99.90;;;;;;4770251;30;20292;-84
2022/09/01 06:30:19;;;;;;;1.00;0.88;;;13.20;99.90;;;;;;4770544;30;20207;-83
2022/09/01 06:32:45;;;;;;;3.28;1.08;;;13.30;99.90;;;;;;4770773;30;20263;-83
2022/09/01 06:35:14;;;;;;;1.77;1.02;;;13.40;99.90;;;;;;4770495;30;20581;-82
2022/09/01 06:37:42;;;;;;;1.27;0.90;;;13.50;99.90;;;;;;4770240;30;20343;-81
2022/09/01 06:40:15;;;;;;;3.25;1.23;;;13.60;99.90;;;;;;4770422;30;20181;-82
2022/09/01 06:42:46;;;;;;;1.63;1.10;;;13.70;99.90;;;;;;4770504;30;20235;-82
2022/09/01 06:45:15;;;;;;;1.67;0.98;;;13.90;99.90;;;;;;4754352;30;20594;-83
2022/09/01 06:47:46;;;;;;;1.63;1.10;;;14.00;99.90;;;;;;4754298;30;20662;-84
2022/09/01 06:50:20;;;;;;;2.40;1.25;;;14.10;99.90;;;;;;4753998;30;20223;-83
2022/09/01 06:52:48;;;;;;;2.45;1.10;;;14.20;99.90;;;;;;4769861;30;20276;-83
2022/09/01 06:55:15;;;;;;;1.90;1.00;;;14.30;99.90;;;;;;4754214;30;20188;-84
2022/09/01 06:57:44;;;;;;;3.85;1.08;;;14.40;99.90;;;;;;4770413;30;20300;-82
2022/09/01 07:00:19;;;;;;;5.43;1.10;;;14.50;99.90;;;;;;4770329;30;20393;-82
2022/09/01 07:02:54;;;;;;;2.33;1.10;;;14.60;99.90;;;;;;4770162;30;20168;-80
2022/09/01 07:05:21;;;;;;;2.58;0.88;;;14.70;99.90;;;;;;4770429;30;20172;-82
2022/09/01 07:07:50;;;;;;;3.53;1.00;;;14.80;99.90;;;;;;4753908;30;20278;-81
2022/09/01 07:10:23;;;;;;;3.03;0.55;;;14.90;99.90;;;;;;4770033;30;20204;-81
2022/09/01 07:12:51;;;;;;;0.70;0.50;;;15.10;99.90;;;;;;4756331;30;20537;-82
2022/09/01 07:15:18;;;;;;;0.77;0.50;;;15.30;99.90;;;;;;4757217;30;20190;-82
2022/09/01 07:17:57;;;;;;;0.98;0.77;;;15.40;99.90;;;;;;4757426;30;20273;-81
2022/09/01 07:20:26;;;;;;;2.22;0.65;;;15.60;99.90;;;;;;4757543;30;20180;-82
2022/09/01 07:22:53;;;;;;;1.38;0.63;;;15.70;99.90;;;;;;4772944;30;20318;-82
2022/09/01 07:25:19;;;;;;;2.90;0.90;;;15.80;99.90;;;;;;4773583;30;20184;-83
2022/09/01 07:27:49;;;;;;;1.30;0.70;;;15.90;99.90;;;;;;4756206;30;20184;-80
2022/09/01 07:30:17;;;;;;;0.82;0.68;;;16.00;99.90;;;;;;4773132;30;20208;-82
2022/09/01 07:32:43;;;;;;;1.77;0.68;;;16.20;99.90;;;;;;4757335;30;20195;-82
2022/09/01 07:35:10;;;;;;;2.58;0.57;;;16.30;99.90;;;;;;4757505;30;20506;-83
2022/09/01 07:37:36;;;;;;;1.05;0.60;;;16.40;99.90;;;;;;4772908;30;20628;-83
2022/09/01 07:40:08;;;;;;;1.27;0.70;;;16.50;99.70;;;;;;4773375;30;20196;-83
2022/09/01 07:42:35;;;;;;;1.02;0.50;;;16.70;99.30;;;;;;4773123;30;20621;-82
2022/09/01 07:45:06;;;;;;;0.45;0.38;;;16.80;98.80;;;;;;4772782;30;20203;-83
2022/09/01 07:47:35;;;;;;;1.70;0.65;;;16.90;98.30;;;;;;4756942;30;20639;-82
2022/09/01 07:50:07;;;;;;;3.38;0.60;;;17.00;98.00;;;;;;4773232;30;20172;-82
2022/09/01 07:52:41;;;;;;;0.88;0.50;;;17.10;98.30;;;;;;4757118;30;20199;-83
2022/09/01 07:55:10;;;;;;;1.27;0.63;;;17.20;98.30;;;;;;4756766;30;20271;-83
2022/09/01 07:57:37;;;;;;;1.15;0.52;;;17.30;98.10;;;;;;4772190;30;20195;-82
2022/09/01 08:00:05;;;;;;;2.67;0.65;;;17.40;97.40;;;;;;4757001;30;20192;-84
2022/09/01 08:02:31;;;;;;;1.42;0.70;;;17.50;97.50;;;;;;4755614;30;20196;-82
2022/09/01 08:04:57;;;;;;;2.05;1.13;;;17.60;97.30;;;;;;4756628;30;20187;-82
2022/09/01 08:07:23;;;;;;;1.50;0.60;;;17.60;97.40;;;;;;4756478;30;20191;-81
2022/09/01 08:09:49;;;;;;;2.40;0.70;;;17.60;97.70;;;;;;4772898;30;20309;-83
2022/09/01 08:12:15;;;;;;;1.63;0.70;;;17.80;97.50;;;;;;4756383;30;20224;-83
2022/09/01 08:14:41;;;;;;;2.20;0.50;;;17.90;96.40;;;;;;4772778;30;20228;-81
2022/09/01 08:17:07;;;;;;;0.50;0.40;;;18.00;95.90;;;;;;4756697;30;20238;-82
2022/09/01 08:19:33;;;;;;;1.52;0.60;;;18.00;95.40;;;;;;4772636;30;20643;-82
2022/09/01 08:22:00;;;;;;;2.15;0.60;;;18.10;95.70;;;;;;4755858;30;20188;-82
2022/09/01 08:24:25;;;;;;;1.35;0.73;;;18.20;95.80;;;;;;4756573;30;20227;-83
2022/09/01 08:26:51;;;;;;;0.70;0.50;;;18.30;96.00;;;;;;4772626;30;20338;-85
2022/09/01 08:29:17;;;;;;;0.75;0.60;;;18.40;95.90;;;;;;4756243;30;20613;-83
2022/09/01 08:31:45;;;;;;;0.82;0.40;;;18.40;96.10;;;;;;4772344;30;20220;-83
2022/09/01 08:34:11;;;;;;;1.05;0.60;;;18.50;95.90;;;;;;4772549;30;20263;-83
2022/09/01 08:36:37;;;;;;;1.75;0.60;;;18.50;96.20;;;;;;4755905;30;20199;-82
2022/09/01 08:39:03;;;;;;;3.67;0.70;;;18.60;96.00;;;;;;4772546;30;20177;-84
2022/09/01 08:41:37;;;;;;;1.88;0.70;;;18.70;95.70;;;;;;4756270;30;20211;-83
2022/09/01 08:44:36;;;;;;;2.35;0.85;;;18.80;95.50;;;;;;4772226;30;20651;-83
2022/09/01 08:47:07;;;;;;;0.95;0.60;;;18.90;95.30;;;;;;4751499;30;20200;-82
2022/09/01 08:49:35;;;;;;;0.90;0.50;;;19.00;95.10;;;;;;4756197;30;20522;-82
2022/09/01 08:52:28;;;;;;;2.00;0.68;;;19.00;95.10;;;;;;4771678;30;20310;-83
2022/09/01 08:55:26;;;;;;;1.88;0.77;;;19.10;94.60;;;;;;4772071;30;20184;-82
2022/09/01 08:57:56;;;;;;;1.65;0.57;;;19.20;94.70;;;;;;4771847;30;20184;-84
2022/09/01 09:00:29;;;;;;;2.03;0.50;;;19.30;94.50;;;;;;4771499;30;20176;-83
2022/09/01 09:03:13;;;;;;;0.50;0.50;;;19.30;94.20;;;;;;4753113;30;20250;-83
2022/09/01 09:06:18;;;;;;;2.28;0.57;;;19.40;94.20;;;;;;4771170;30;20188;-84
2022/09/01 09:09:06;;;;;;;2.15;0.65;;;19.40;93.50;;;;;;4771687;30;20267;-85
2022/09/01 09:11:53;;;;;;;2.38;0.70;;;19.60;94.00;;;;;;4771714;30;20215;-82
2022/09/01 09:14:57;;;;;;;1.85;0.60;;;19.60;93.00;;;;;;4771559;30;20505;-85
2022/09/01 09:17:33;;;;;;;0.70;0.43;;;19.70;93.40;;;;;;4729830;30;20636;-82
2022/09/01 09:20:00;;;;;;;2.75;0.60;;;19.80;93.70;;;;;;4755431;30;20237;-84
2022/09/01 09:22:25;;;;;;;2.60;0.45;;;19.80;92.90;;;;;;4771167;30;20211;-84
2022/09/01 09:24:58;;;;;;;0.68;0.43;;;19.90;93.10;;;;;;4755646;30;20543;-81
2022/09/01 09:27:39;;;;;;;1.90;0.50;;;20.00;93.00;;;;;;4771148;30;20267;-85
2022/09/01 09:30:09;;;;;;;0.60;0.50;;;20.10;92.50;;;;;;4770558;30;20180;-85
2022/09/01 09:32:42;;;;;;;0.85;0.55;;;20.20;92.00;;;;;;4755200;30;20340;-84
2022/09/01 09:35:25;;;;;;;2.60;0.50;;;20.20;92.10;;;;;;4754782;30;20184;-83
2022/09/01 09:37:52;;;;;;;0.98;0.43;;;20.30;91.00;;;;;;4771138;30;20196;-84
2022/09/01 09:40:25;;;;;;;1.02;0.40;;;20.30;90.90;;;;;;4755453;30;20192;-83
2022/09/01 09:42:54;;;;;;;0.73;0.40;;;20.40;91.50;;;;;;4754810;30;20250;-84
2022/09/01 09:45:38;;;;;;;0.43;0.30;;;20.40;91.50;;;;;;4755288;30;20188;-82
2022/09/01 09:48:25;;;;;;;1.45;0.60;;;20.50;91.00;;;;;;4754942;30;20624;-82
2022/09/01 09:50:50;;;;;;;1.02;0.50;;;20.60;91.20;;;;;;4754721;30;20730;-83
2022/09/01 09:53:26;;;;;;;0.63;0.30;;;20.70;90.60;;;;;;4755069;30;20336;-84
2022/09/01 09:56:24;;;;;;;2.22;0.57;;;20.80;90.00;;;;;;4771198;30;20178;-83
2022/09/01 09:58:52;;;;;;;1.45;0.50;;;20.90;90.30;;;;;;4754412;30;20222;-82
2022/09/01 10:01:24;;;;;;;1.08;0.40;;;20.90;88.30;;;;;;4754701;30;20192;-84
2022/09/01 10:03:56;;;;;;;0.88;0.40;;;20.90;89.40;;;;;;4755435;30;20562;-82
2022/09/01 10:06:36;;;;;;;1.65;0.73;;;20.90;87.40;;;;;;4770631;30;20662;-83
2022/09/01 10:09:08;;;;;;;0.43;0.40;;;21.00;87.50;;;;;;4770836;30;20191;-82
2022/09/01 10:11:42;;;;;;;1.40;0.50;;;21.00;89.30;;;;;;4770507;30;20211;-81
2022/09/01 10:14:50;;;;;;;1.85;0.60;;;21.20;89.40;;;;;;4770839;30;20632;-84
2022/09/01 10:17:33;;;;;;;1.55;0.60;;;21.30;87.00;;;;;;4681142;30;20199;-86
2022/09/01 10:20:11;;;;;;;1.45;0.55;;;21.40;85.80;;;;;;4667201;30;20366;-85
2022/09/01 10:22:38;;;;;;;0.70;0.43;;;21.40;86.50;;;;;;4743202;30;20227;-85
2022/09/01 10:25:06;;;;;;;0.30;0.30;;;21.50;87.60;;;;;;4770736;30;20176;-86
2022/09/01 10:27:39;;;;;;;2.60;0.60;;;21.60;87.40;;;;;;4769417;30;20275;-82
2022/09/01 10:30:12;;;;;;;1.13;0.40;;;21.70;86.50;;;;;;4770590;30;20639;-82
2022/09/01 10:32:49;;;;;;;0.88;0.40;;;21.70;85.60;;;;;;4754279;30;20227;-82
2022/09/01 10:35:26;;;;;;;0.70;0.50;;;21.80;85.40;;;;;;4754709;30;20202;-83
2022/09/01 10:37:53;;;;;;;1.00;0.40;;;21.80;85.60;;;;;;4770485;30;20172;-83
2022/09/01 10:40:27;;;;;;;0.70;0.35;;;21.90;84.10;;;;;;4770507;30;20242;-83
2022/09/01 10:42:56;;;;;;;2.20;0.40;;;21.90;84.10;;;;;;4754213;30;20236;-83
2022/09/01 10:45:36;;;;;;;0.60;0.40;;;22.00;83.40;;;;;;4754383;30;20184;-84
2022/09/01 10:48:20;;;;;;;1.40;0.50;;;22.10;83.50;;;;;;4773582;30;20172;-84
2022/09/01 10:51:14;;;;;;;3.50;0.70;;;22.20;84.90;;;;;;4757851;30;20686;-83
2022/09/01 10:53:45;;;;;;;2.47;0.50;;;22.30;83.60;;;;;;4773550;30;20278;-81
2022/09/01 10:56:43;;;;;;;3.00;0.50;;;22.20;82.80;;;;;;4774286;30;20272;-84
2022/09/01 10:59:25;;;;;;;2.72;0.60;;;22.10;82.30;;;;;;4773000;30;20196;-83
2022/09/01 11:01:51;;;;;;;1.02;0.32;;;22.10;81.30;;;;;;4756517;30;20534;-82
2022/09/01 11:04:18;;;;;;;1.90;0.40;;;22.20;81.00;;;;;;4773393;30;20176;-82
2022/09/01 11:06:57;;;;;;;3.15;0.50;;;22.30;82.00;;;;;;4773177;30;20190;-82
2022/09/01 11:09:40;;;;;;;2.45;0.57;;;22.40;82.80;;;;;;4766097;30;20245;-80
2022/09/01 11:12:21;;;;;;;2.45;0.60;;;22.40;81.30;;;;;;4773737;30;20212;-80
2022/09/01 11:15:03;;;;;;;2.03;0.30;;;22.50;81.80;;;;;;4773910;30;20171;-82
2022/09/01 11:17:58;;;;;;;1.65;0.30;;;22.60;81.60;;;;;;4773537;30;20232;-81
2022/09/01 11:20:32;;;;;;;1.25;0.50;;;22.60;80.90;;;;;;4755009;30;20200;-83
2022/09/01 11:23:23;;;;;;;0.73;0.40;;;22.70;81.50;;;;;;4756963;30;20245;-81
2022/09/01 11:26:01;;;;;;;3.22;0.50;;;22.80;82.20;;;;;;4773441;30;20188;-82
2022/09/01 11:28:30;;;;;;;0.88;0.45;;;22.80;80.40;;;;;;4757290;30;20199;-82
2022/09/01 11:30:59;;;;;;;1.35;0.40;;;22.90;80.70;;;;;;4773569;30;20367;-81
2022/09/01 11:33:27;;;;;;;0.75;0.40;;;23.00;80.50;;;;;;4773510;30;20187;-81
2022/09/01 11:36:04;;;;;;;1.13;0.40;;;23.10;80.30;;;;;;4773401;30;20180;-84
2022/09/01 11:38:45;;;;;;;1.15;0.50;;;23.10;80.90;;;;;;4773212;30;20164;-82
2022/09/01 11:41:22;;;;;;;0.93;0.32;;;23.30;80.70;;;;;;4773323;30;20195;-82
2022/09/01 11:43:54;;;;;;;0.60;0.40;;;23.30;78.60;;;;;;4756990;30;20328;-82
2022/09/01 11:46:34;;;;;;;0.60;0.47;;;23.30;77.40;;;;;;4757370;30;20188;-83
2022/09/01 11:49:06;;;;;;;2.25;0.40;;;23.30;78.20;;;;;;4756932;30;20187;-81
2022/09/01 11:51:45;;;;;;;1.52;0.38;;;23.40;76.50;;;;;;4772588;30;20212;-83
2022/09/01 11:54:13;;;;;;;0.60;0.30;;;23.40;78.40;;;;;;4773291;30;20180;-81
2022/09/01 11:56:38;;;;;;;0.47;0.30;;;23.50;77.10;;;;;;4756171;30;20283;-81
2022/09/01 11:59:04;;;;;;;1.20;0.47;;;23.20;76.60;;;;;;4772313;30;20283;-82
2022/09/01 12:01:33;;;;;;;0.50;0.35;;;23.00;76.70;;;;;;4773013;30;20620;-83
2022/09/01 12:04:21;;;;;;;0.65;0.38;;;23.00;77.30;;;;;;4756580;30;20187;-83
2022/09/01 12:06:59;;;;;;;2.58;0.40;;;23.20;77.50;;;;;;4772839;30;20609;-82
2022/09/01 12:09:42;;;;;;;2.92;0.30;;;23.40;76.50;;;;;;4756875;30;20531;-84
2022/09/01 12:12:29;;;;;;;0.60;0.40;;;23.40;77.90;;;;;;4772640;30;20674;-80
2022/09/01 12:15:00;;;;;;;2.03;0.82;;;23.30;76.40;;;;;;4757152;30;20501;-82
2022/09/01 12:17:26;;;;;;;0.68;0.32;;;23.40;76.10;;;;;;4772583;30;20176;-82
2022/09/01 12:19:53;;;;;;;1.20;0.47;;;23.60;76.10;;;;;;4772863;30;20271;-84
2022/09/01 12:22:21;;;;;;;1.65;0.38;;;23.30;74.00;;;;;;4756212;30;20583;-81
2022/09/01 12:24:51;;;;;;;1.23;0.40;;;23.20;75.90;;;;;;4772555;30;20521;-81
2022/09/01 12:27:18;;;;;;;3.72;0.40;;;23.20;76.20;;;;;;4756258;30;20192;-83
2022/09/01 12:29:44;;;;;;;1.10;0.40;;;23.20;75.80;;;;;;4772233;30;20301;-82
2022/09/01 12:32:12;;;;;;;0.77;0.30;;;23.30;76.20;;;;;;4771549;30;20220;-81
2022/09/01 12:34:57;;;;;;;0.50;0.40;;;23.60;76.40;;;;;;4756310;30;20195;-84
2022/09/01 12:37:25;;;;;;;0.50;0.40;;;23.70;74.10;;;;;;4772075;30;20176;-83
2022/09/01 12:39:53;;;;;;;0.63;0.32;;;23.80;73.90;;;;;;4772496;30;20195;-81
2022/09/01 12:42:26;;;;;;;3.13;0.40;;;23.80;73.90;;;;;;4772025;30;20243;-82
2022/09/01 12:45:05;;;;;;;0.93;0.43;;;23.90;73.50;;;;;;4755628;30;20188;-82
2022/09/01 12:47:36;;;;;;;1.80;0.40;;;24.00;74.80;;;;;;4771921;30;20183;-80
2022/09/01 12:50:14;;;;;;;0.50;0.40;;;23.60;73.00;;;;;;4756053;30;20187;-85
2022/09/01 12:53:09;;;;;;;2.80;0.40;;;23.20;74.20;;;;;;4771993;30;20176;-82
2022/09/01 12:55:36;;;;;;;0.57;0.35;;;22.90;74.90;;;;;;4755103;30;20188;-82
2022/09/01 12:58:07;;;;;;;0.50;0.40;;;22.80;76.20;;;;;;4771094;30;20202;-82
2022/09/01 13:00:53;;;;;;;2.83;0.50;;;23.10;73.70;;;;;;4755909;30;20243;-82
2022/09/01 13:03:20;;;;;;;1.00;0.50;;;23.40;74.20;;;;;;4759022;30;20261;-82
2022/09/01 13:05:51;;;;;;;0.47;0.40;;;23.60;72.90;;;;;;4771992;30;20560;-83
2022/09/01 13:08:19;;;;;;;1.10;0.30;;;23.70;72.90;;;;;;4771417;30;20223;-81
2022/09/01 13:10:47;;;;;;;2.20;0.55;;;23.50;71.20;;;;;;4771093;30;20211;-82
2022/09/01 13:13:15;;;;;;;0.77;0.47;;;23.20;71.50;;;;;;4771859;30;20624;-84
2022/09/01 13:15:45;;;;;;;0.65;0.40;;;23.20;73.50;;;;;;4771933;30;20188;-82